createdAt,value
2022-08-03T00:02:19.667Z,16.50
2022-08-03T00:04:48.169Z,16.50
2022-08-03T00:07:18.117Z,16.50
2022-08-03T00:09:46.715Z,16.50
2022-08-03T00:12:15.117Z,16.40
2022-08-03T00:14:43.970Z,16.40
2022-08-03T00:17:12.385Z,16.30
2022-08-03T00:19:40.562Z,16.30
2022-08-03T00:22:09.373Z,16.30
2022-08-03T00:24:39.363Z,16.20
2022-08-03T00:27:07.617Z,16.10
2022-08-03T00:30:00.002Z,16.10
2022-08-03T00:32:24.826Z,16.20
2022-08-03T00:34:58.524Z,16.10
2022-08-03T00:37:41.712Z,16.10
2022-08-03T00:40:13.871Z,16.10
2022-08-03T00:42:50.691Z,16.10
2022-08-03T00:45:19.867Z,16.10
2022-08-03T00:47:48.143Z,16.10
2022-08-03T00:50:17.606Z,16.10
2022-08-03T00:52:46.209Z,16.10
2022-08-03T00:55:16.321Z,16.10
2022-08-03T00:57:45.553Z,16.10
2022-08-03T01:00:16.857Z,16.10
2022-08-03T01:02:45.592Z,16.00
2022-08-03T01:05:13.986Z,15.90
2022-08-03T01:07:57.360Z,16.00
2022-08-03T01:10:36.932Z,15.90
2022-08-03T01:14:01.962Z,15.90
2022-08-03T01:16:07.475Z,16.00
2022-08-03T01:18:44.472Z,15.90
2022-08-03T01:21:17.944Z,15.90
2022-08-03T01:24:06.605Z,15.90
2022-08-03T01:27:01.026Z,15.90
2022-08-03T01:30:04.658Z,15.90
2022-08-03T01:33:02.925Z,15.80
2022-08-03T01:35:38.740Z,15.80
2022-08-03T01:38:13.301Z,15.80
2022-08-03T01:40:44.690Z,15.80
2022-08-03T01:44:26.680Z,15.80
2022-08-03T01:46:10.439Z,15.70
2022-08-03T01:48:40.906Z,15.70
2022-08-03T01:51:10.582Z,15.70
2022-08-03T01:53:40.548Z,15.70
2022-08-03T01:56:09.843Z,15.70
2022-08-03T01:58:39.746Z,15.70
2022-08-03T02:01:11.439Z,15.70
2022-08-03T02:03:59.620Z,15.60
2022-08-03T02:07:01.528Z,15.60
2022-08-03T02:09:24.310Z,15.60
2022-08-03T02:11:54.493Z,15.60
2022-08-03T02:14:24.656Z,15.60
2022-08-03T02:16:56.004Z,15.60
2022-08-03T02:19:30.328Z,15.60
2022-08-03T02:22:01.907Z,15.60
2022-08-03T02:24:31.922Z,15.60
2022-08-03T02:27:01.382Z,15.60
2022-08-03T02:29:40.379Z,15.50
2022-08-03T02:32:13.587Z,15.50
2022-08-03T02:34:44.083Z,15.50
2022-08-03T02:37:14.624Z,15.50
2022-08-03T02:39:43.937Z,15.40
2022-08-03T02:42:15.084Z,15.50
2022-08-03T02:44:48.505Z,15.50
2022-08-03T02:47:21.444Z,15.50
2022-08-03T02:49:52.648Z,15.50
2022-08-03T02:52:23.813Z,15.50
2022-08-03T02:54:56.252Z,15.50
2022-08-03T02:57:26.643Z,15.50
2022-08-03T02:59:56.422Z,15.50
2022-08-03T03:02:26.774Z,15.50
2022-08-03T03:05:50.866Z,15.60
2022-08-03T03:07:53.030Z,15.50
2022-08-03T03:10:23.497Z,15.50
2022-08-03T03:12:54.422Z,15.50
2022-08-03T03:15:23.613Z,15.50
2022-08-03T03:17:54.771Z,15.50
2022-08-03T03:20:28.959Z,15.50
2022-08-03T03:23:01.294Z,15.50
2022-08-03T03:25:32.050Z,15.50
2022-08-03T03:28:01.011Z,15.40
2022-08-03T03:30:31.238Z,15.40
2022-08-03T03:33:00.968Z,15.40
2022-08-03T03:35:29.703Z,15.40
2022-08-03T03:37:58.504Z,15.40
2022-08-03T03:40:28.359Z,15.40
2022-08-03T03:42:57.018Z,15.40
2022-08-03T03:45:26.206Z,15.40
2022-08-03T03:47:54.771Z,15.40
2022-08-03T03:50:25.082Z,15.50
2022-08-03T03:52:53.779Z,15.60
2022-08-03T03:55:22.030Z,15.70
2022-08-03T03:57:50.302Z,15.80
2022-08-03T04:00:20.125Z,15.90
2022-08-03T04:02:48.806Z,16.00
2022-08-03T04:05:35.024Z,16.10
2022-08-03T04:08:25.077Z,16.10
2022-08-03T04:11:07.882Z,16.20
2022-08-03T04:13:41.909Z,16.20
2022-08-03T04:16:14.589Z,16.30
2022-08-03T04:18:47.883Z,16.40
2022-08-03T04:21:18.130Z,16.50
2022-08-03T04:23:51.201Z,16.50
2022-08-03T04:26:23.437Z,16.60
2022-08-03T04:28:56.753Z,16.60
2022-08-03T04:31:27.547Z,16.60
2022-08-03T04:33:56.621Z,16.60
2022-08-03T04:36:27.891Z,16.60
2022-08-03T04:39:04.829Z,16.70
2022-08-03T04:42:07.216Z,16.70
2022-08-03T04:44:28.486Z,16.70
2022-08-03T04:46:58.183Z,16.70
2022-08-03T04:49:27.475Z,16.70
2022-08-03T04:51:56.197Z,16.80
2022-08-03T04:54:25.860Z,16.80
2022-08-03T04:56:54.668Z,16.80
2022-08-03T04:59:23.240Z,16.90
2022-08-03T05:01:51.469Z,16.90
2022-08-03T05:04:21.157Z,16.90
2022-08-03T05:06:54.937Z,17.00
2022-08-03T05:09:50.767Z,17.00
2022-08-03T05:12:14.133Z,17.10
2022-08-03T05:14:42.986Z,17.10
2022-08-03T05:17:11.178Z,17.10
2022-08-03T05:19:39.357Z,17.10
2022-08-03T05:22:08.272Z,17.10
2022-08-03T05:24:38.138Z,17.20
2022-08-03T05:27:06.375Z,17.20
2022-08-03T05:29:34.522Z,17.30
2022-08-03T05:32:08.042Z,17.50
2022-08-03T05:34:36.391Z,17.60
2022-08-03T05:37:05.309Z,17.60
2022-08-03T05:39:33.434Z,17.70
2022-08-03T05:42:03.507Z,17.70
2022-08-03T05:44:32.282Z,17.80
2022-08-03T05:47:00.513Z,17.80
2022-08-03T05:49:29.186Z,17.90
2022-08-03T05:52:10.299Z,17.90
2022-08-03T05:54:56.246Z,18.10
2022-08-03T05:57:27.404Z,18.20
2022-08-03T05:59:58.595Z,18.20
2022-08-03T06:02:27.593Z,18.10
2022-08-03T06:04:55.824Z,18.10
2022-08-03T06:07:24.177Z,18.10
2022-08-03T06:10:34.519Z,18.10
2022-08-03T06:12:42.422Z,18.10
2022-08-03T06:15:11.842Z,18.20
2022-08-03T06:17:47.498Z,18.20
2022-08-03T06:20:18.249Z,18.30
2022-08-03T06:22:51.333Z,18.30
2022-08-03T06:25:29.727Z,18.40
2022-08-03T06:27:59.916Z,18.50
2022-08-03T06:30:28.262Z,18.60
2022-08-03T06:32:56.949Z,18.60
2022-08-03T06:35:25.491Z,18.80
2022-08-03T06:37:53.665Z,19.00
2022-08-03T06:40:29.576Z,19.10
2022-08-03T06:42:59.669Z,19.10
2022-08-03T06:45:31.918Z,19.20
2022-08-03T06:48:04.976Z,19.10
2022-08-03T06:50:34.048Z,19.20
2022-08-03T06:53:02.702Z,19.10
2022-08-03T06:55:30.999Z,19.10
2022-08-03T06:58:03.402Z,19.20
2022-08-03T07:00:32.045Z,19.00
2022-08-03T07:03:00.545Z,19.00
2022-08-03T07:05:28.904Z,18.90
2022-08-03T07:07:59.737Z,19.00
2022-08-03T07:10:28.790Z,19.20
2022-08-03T07:12:57.285Z,19.10
2022-08-03T07:15:54.398Z,19.10
2022-08-03T07:18:16.427Z,19.20
2022-08-03T07:20:45.111Z,19.30
2022-08-03T07:23:19.340Z,19.20
2022-08-03T07:25:48.158Z,19.20
2022-08-03T07:28:16.493Z,19.50
2022-08-03T07:30:46.063Z,19.70
2022-08-03T07:33:15.354Z,20.00
2022-08-03T07:35:44.263Z,20.30
2022-08-03T07:38:12.538Z,20.70
2022-08-03T07:40:44.505Z,20.90
2022-08-03T07:43:14.408Z,21.10
2022-08-03T07:45:42.936Z,21.50
2022-08-03T07:48:12.830Z,21.80
2022-08-03T07:50:42.033Z,21.80
2022-08-03T07:53:10.357Z,21.70
2022-08-03T07:55:38.656Z,21.90
2022-08-03T07:58:09.801Z,21.80
2022-08-03T08:00:38.349Z,21.80
2022-08-03T08:03:06.791Z,22.00
2022-08-03T08:05:36.297Z,21.90
2022-08-03T08:08:05.707Z,21.70
2022-08-03T08:10:33.972Z,21.50
2022-08-03T08:13:02.984Z,21.40
2022-08-03T08:15:32.957Z,21.10
2022-08-03T08:18:02.562Z,21.00
2022-08-03T08:20:34.981Z,21.00
2022-08-03T08:23:24.870Z,21.00
2022-08-03T08:25:58.434Z,21.00
2022-08-03T08:28:32.511Z,20.80
2022-08-03T08:31:02.142Z,20.70
2022-08-03T08:33:47.899Z,20.90
2022-08-03T08:36:19.516Z,21.00
2022-08-03T08:38:49.149Z,21.00
2022-08-03T08:41:17.792Z,21.00
2022-08-03T08:43:46.445Z,21.30
2022-08-03T08:46:23.643Z,21.40
2022-08-03T08:48:53.410Z,21.20
2022-08-03T08:51:23.581Z,21.40
2022-08-03T08:54:15.015Z,22.00
2022-08-03T08:56:44.960Z,22.30
2022-08-03T08:59:13.631Z,22.50
2022-08-03T09:01:42.115Z,22.90
2022-08-03T09:04:10.686Z,23.00
2022-08-03T09:06:39.030Z,23.40
2022-08-03T09:09:08.506Z,23.90
2022-08-03T09:11:54.471Z,24.30
2022-08-03T09:14:36.961Z,24.20
2022-08-03T09:17:17.414Z,24.30
2022-08-03T09:20:06.356Z,24.20
2022-08-03T09:22:34.602Z,24.40
2022-08-03T09:25:23.253Z,24.60
2022-08-03T09:27:54.146Z,24.70
2022-08-03T09:30:33.226Z,25.30
2022-08-03T09:33:04.004Z,25.60
2022-08-03T09:35:53.247Z,25.20
2022-08-03T09:38:26.337Z,24.90
2022-08-03T09:40:59.533Z,25.20
2022-08-03T09:43:46.958Z,24.80
2022-08-03T09:46:15.282Z,24.70
2022-08-03T09:48:43.481Z,24.20
2022-08-03T09:51:33.144Z,24.00
2022-08-03T09:54:05.571Z,24.30
2022-08-03T09:56:43.404Z,23.90
2022-08-03T09:59:14.922Z,23.60
2022-08-03T10:01:43.320Z,23.80
2022-08-03T10:04:17.255Z,23.50
2022-08-03T10:06:46.482Z,23.50
2022-08-03T10:09:16.700Z,23.40
2022-08-03T10:11:47.252Z,23.80
2022-08-03T10:14:20.356Z,23.90
2022-08-03T10:16:48.998Z,24.00
2022-08-03T10:19:18.314Z,23.90
2022-08-03T10:21:52.011Z,23.90
2022-08-03T10:24:27.299Z,23.90
2022-08-03T10:27:02.742Z,24.10
2022-08-03T10:29:39.354Z,24.00
2022-08-03T10:32:16.176Z,24.30
2022-08-03T10:34:47.835Z,24.00
2022-08-03T10:37:18.895Z,24.00
2022-08-03T10:39:54.454Z,24.40
2022-08-03T10:42:26.297Z,24.40
2022-08-03T10:45:04.682Z,24.10
2022-08-03T10:47:33.548Z,23.90
2022-08-03T10:50:02.746Z,24.30
2022-08-03T10:52:35.065Z,24.50
2022-08-03T10:55:49.626Z,25.10
2022-08-03T10:58:57.381Z,24.80
2022-08-03T11:01:59.839Z,24.90
2022-08-03T11:04:29.720Z,24.50
2022-08-03T11:07:23.435Z,24.50
2022-08-03T11:09:52.882Z,24.70
2022-08-03T11:12:30.347Z,24.60
2022-08-03T11:15:01.499Z,24.70
2022-08-03T11:17:31.729Z,25.00
2022-08-03T11:20:00.115Z,24.60
2022-08-03T11:22:50.020Z,24.20
2022-08-03T11:25:54.345Z,23.90
2022-08-03T11:28:29.114Z,24.00
2022-08-03T11:31:39.564Z,24.00
2022-08-03T11:34:10.950Z,24.10
2022-08-03T11:37:12.599Z,24.40
2022-08-03T11:39:43.690Z,24.00
2022-08-03T11:42:40.385Z,23.90
2022-08-03T11:45:10.362Z,24.20
2022-08-03T11:47:50.628Z,23.40
2022-08-03T11:50:21.918Z,23.20
2022-08-03T11:52:50.985Z,23.20
2022-08-03T11:55:22.203Z,23.30
2022-08-03T11:59:18.753Z,23.40
2022-08-03T12:00:40.528Z,23.50
2022-08-03T12:03:12.679Z,23.50
2022-08-03T12:05:52.218Z,23.60
2022-08-03T12:08:32.587Z,23.50
2022-08-03T12:11:02.370Z,23.60
2022-08-03T12:14:45.643Z,23.90
2022-08-03T12:16:30.798Z,23.90
2022-08-03T12:19:00.597Z,24.00
2022-08-03T12:21:30.779Z,23.90
2022-08-03T12:24:00.686Z,24.00
2022-08-03T12:26:30.774Z,24.40
2022-08-03T12:28:59.258Z,24.90
2022-08-03T12:31:27.640Z,25.30
2022-08-03T12:34:03.116Z,25.20
2022-08-03T12:36:34.530Z,24.80
2022-08-03T12:39:05.061Z,24.50
2022-08-03T12:41:35.393Z,24.20
2022-08-03T12:44:04.935Z,24.00
2022-08-03T12:46:34.938Z,24.20
2022-08-03T12:49:06.057Z,24.10
2022-08-03T12:51:37.524Z,24.10
2022-08-03T12:54:06.875Z,24.50
2022-08-03T12:56:35.393Z,24.80
2022-08-03T12:59:32.327Z,24.70
2022-08-03T13:02:04.487Z,24.40
2022-08-03T13:04:38.594Z,24.30
2022-08-03T13:07:14.079Z,24.20
2022-08-03T13:09:48.559Z,24.10
2022-08-03T13:12:18.398Z,24.20
2022-08-03T13:14:48.928Z,24.30
2022-08-03T13:17:19.701Z,24.50
2022-08-03T13:19:49.029Z,24.90
2022-08-03T13:22:22.644Z,25.00
2022-08-03T13:24:52.474Z,25.10
2022-08-03T13:28:01.699Z,24.70
2022-08-03T13:30:11.174Z,24.10
2022-08-03T13:32:39.664Z,23.70
2022-08-03T13:35:08.755Z,23.50
2022-08-03T13:37:39.138Z,23.60
2022-08-03T13:40:11.615Z,23.40
2022-08-03T13:42:40.107Z,23.10
2022-08-03T13:45:09.474Z,23.00
2022-08-03T13:47:38.050Z,23.00
2022-08-03T13:50:06.850Z,22.90
2022-08-03T13:52:38.207Z,22.80
2022-08-03T13:55:08.339Z,22.80
2022-08-03T13:58:06.682Z,22.80
2022-08-03T14:00:29.231Z,22.90
2022-08-03T14:03:06.494Z,22.90
2022-08-03T14:05:38.801Z,22.90
2022-08-03T14:08:09.130Z,22.90
2022-08-03T14:10:39.657Z,22.80
2022-08-03T14:13:08.907Z,22.70
2022-08-03T14:15:38.475Z,22.70
2022-08-03T14:18:13.005Z,22.80
2022-08-03T14:20:47.838Z,23.00
2022-08-03T14:23:20.099Z,23.00
2022-08-03T14:25:51.531Z,23.00
2022-08-03T14:28:22.561Z,23.00
2022-08-03T14:30:51.318Z,23.20
2022-08-03T14:33:19.568Z,23.20
2022-08-03T14:35:48.447Z,23.10
2022-08-03T14:38:17.357Z,23.10
2022-08-03T14:40:47.473Z,23.20
2022-08-03T14:43:17.899Z,23.20
2022-08-03T14:45:46.169Z,23.40
2022-08-03T14:50:28.572Z,23.40
2022-08-03T14:51:03.607Z,23.30
2022-08-03T14:53:31.861Z,23.20
2022-08-03T14:56:04.146Z,23.10
2022-08-03T14:58:35.202Z,23.00
2022-08-03T15:01:03.695Z,23.00
2022-08-03T15:03:51.971Z,23.10
2022-08-03T15:06:20.911Z,23.10
2022-08-03T15:09:06.308Z,23.00
2022-08-03T15:11:39.977Z,23.00
2022-08-03T15:14:09.609Z,23.10
2022-08-03T15:16:38.310Z,23.30
2022-08-03T15:20:02.916Z,23.20
2022-08-03T15:21:55.262Z,23.00
2022-08-03T15:24:23.858Z,22.90
2022-08-03T15:26:54.053Z,22.60
2022-08-03T15:30:07.476Z,22.60
2022-08-03T15:32:10.649Z,22.50
2022-08-03T15:34:38.886Z,22.50
2022-08-03T15:37:12.762Z,22.50
2022-08-03T15:40:00.090Z,22.40
2022-08-03T15:42:31.301Z,22.30
2022-08-03T15:45:00.053Z,22.30
2022-08-03T15:47:28.597Z,22.20
2022-08-03T15:49:57.256Z,22.10
2022-08-03T15:52:25.681Z,22.10
2022-08-03T15:54:53.969Z,22.10
2022-08-03T15:57:23.010Z,22.10
2022-08-03T15:59:53.141Z,22.10
2022-08-03T16:02:21.420Z,22.10
2022-08-03T16:04:49.682Z,22.00
2022-08-03T16:07:37.923Z,22.00
2022-08-03T16:10:06.963Z,22.00
2022-08-03T16:12:35.221Z,22.20
2022-08-03T16:15:05.066Z,22.50
2022-08-03T16:17:33.377Z,22.50
2022-08-03T16:20:04.157Z,22.30
2022-08-03T16:22:44.954Z,22.30
2022-08-03T16:25:16.387Z,22.20
2022-08-03T16:27:58.162Z,22.30
2022-08-03T16:30:35.606Z,22.20
2022-08-03T16:33:04.102Z,22.10
2022-08-03T16:35:32.296Z,22.00
2022-08-03T16:38:00.806Z,22.10
2022-08-03T16:40:29.550Z,22.10
2022-08-03T16:42:57.759Z,22.00
2022-08-03T16:45:26.488Z,22.00
2022-08-03T16:48:01.440Z,21.90
2022-08-03T16:50:34.808Z,21.90
2022-08-03T16:53:09.327Z,21.90
2022-08-03T16:55:43.394Z,22.00
2022-08-03T16:58:34.664Z,22.10
2022-08-03T17:01:21.719Z,22.00
2022-08-03T17:04:01.210Z,22.00
2022-08-03T17:06:35.129Z,22.00
2022-08-03T17:09:09.129Z,22.00
2022-08-03T17:11:44.002Z,22.00
2022-08-03T17:14:15.333Z,22.10
2022-08-03T17:16:52.887Z,22.10
2022-08-03T17:19:25.011Z,22.10
2022-08-03T17:22:04.782Z,22.00
2022-08-03T17:24:35.218Z,22.00
2022-08-03T17:27:09.272Z,22.00
2022-08-03T17:30:00.405Z,22.00
2022-08-03T17:32:32.166Z,22.00
2022-08-03T17:35:02.236Z,22.10
2022-08-03T17:37:58.329Z,22.10
2022-08-03T17:40:20.552Z,22.20
2022-08-03T17:42:51.797Z,22.20
2022-08-03T17:45:20.968Z,22.30
2022-08-03T17:47:57.459Z,22.30
2022-08-03T17:50:35.370Z,22.30
2022-08-03T17:53:15.515Z,22.30
2022-08-03T17:56:04.753Z,22.30
2022-08-03T17:58:55.151Z,22.30
2022-08-03T18:02:06.150Z,22.20
2022-08-03T18:04:40.513Z,22.10
2022-08-03T18:07:13.527Z,22.10
2022-08-03T18:10:06.523Z,22.10
2022-08-03T18:12:51.731Z,22.10
2022-08-03T18:15:41.249Z,22.00
2022-08-03T18:18:11.275Z,22.00
2022-08-03T18:20:42.405Z,22.00
2022-08-03T18:23:24.692Z,22.00
2022-08-03T18:26:06.853Z,21.90
2022-08-03T18:28:38.757Z,21.90
2022-08-03T18:31:07.920Z,21.80
2022-08-03T18:34:19.776Z,21.80
2022-08-03T18:36:29.634Z,21.80
2022-08-03T18:39:03.646Z,21.80
2022-08-03T18:41:34.921Z,21.70
2022-08-03T18:44:07.941Z,21.70
2022-08-03T18:46:47.465Z,21.70
2022-08-03T18:49:29.120Z,21.60
2022-08-03T18:52:04.175Z,21.70
2022-08-03T18:54:57.257Z,21.70
2022-08-03T18:57:44.370Z,21.60
2022-08-03T19:00:17.544Z,21.60
2022-08-03T19:02:58.817Z,21.60
2022-08-03T19:05:57.748Z,21.60
2022-08-03T19:08:26.036Z,21.50
2022-08-03T19:11:00.992Z,21.60
2022-08-03T19:13:36.537Z,21.50
2022-08-03T19:16:10.328Z,21.50
2022-08-03T19:18:42.082Z,21.50
2022-08-03T19:21:15.488Z,21.50
2022-08-03T19:23:46.343Z,21.50
2022-08-03T19:26:30.360Z,21.50
2022-08-03T19:29:00.054Z,21.50
2022-08-03T19:31:30.959Z,21.40
2022-08-03T19:34:04.285Z,21.40
2022-08-03T19:36:43.647Z,21.40
2022-08-03T19:39:12.791Z,21.40
2022-08-03T19:41:51.548Z,21.40
2022-08-03T19:44:25.054Z,21.40
2022-08-03T19:46:55.790Z,21.30
2022-08-03T19:50:06.201Z,21.30
2022-08-03T19:52:24.481Z,21.30
2022-08-03T19:55:01.247Z,21.30
2022-08-03T19:57:33.833Z,21.20
2022-08-03T20:00:04.012Z,21.20
2022-08-03T20:02:34.634Z,21.20
2022-08-03T20:05:02.902Z,21.20
2022-08-03T20:07:33.105Z,21.10
2022-08-03T20:10:03.135Z,21.10
2022-08-03T20:12:39.200Z,21.10
2022-08-03T20:15:09.361Z,21.10
2022-08-03T20:17:56.923Z,21.00
2022-08-03T20:20:29.587Z,21.00
2022-08-03T20:22:59.599Z,21.00
2022-08-03T20:25:38.068Z,20.90
2022-08-03T20:28:14.753Z,20.80
2022-08-03T20:30:47.328Z,20.80
2022-08-03T20:33:18.719Z,20.80
2022-08-03T20:35:49.619Z,20.80
2022-08-03T20:38:19.454Z,20.80
2022-08-03T20:40:48.858Z,20.80
2022-08-03T20:43:19.966Z,20.80
2022-08-03T20:46:00.681Z,20.70
2022-08-03T20:48:38.200Z,20.60
2022-08-03T20:51:19.778Z,20.60
2022-08-03T20:53:59.564Z,20.50
2022-08-03T20:56:33.595Z,20.50
2022-08-03T20:59:05.093Z,20.40
2022-08-03T21:01:35.936Z,20.40
2022-08-03T21:04:07.066Z,20.30
2022-08-03T21:06:45.489Z,20.30
2022-08-03T21:09:20.455Z,20.20
2022-08-03T21:11:52.074Z,20.10
2022-08-03T21:14:26.406Z,20.10
2022-08-03T21:16:56.442Z,20.00
2022-08-03T21:19:27.237Z,19.90
2022-08-03T21:21:56.453Z,19.90
2022-08-03T21:24:27.945Z,19.90
2022-08-03T21:26:56.175Z,19.90
2022-08-03T21:29:26.274Z,19.90
2022-08-03T21:31:54.915Z,19.90
2022-08-03T21:34:24.759Z,20.00
2022-08-03T21:36:53.090Z,20.00
2022-08-03T21:39:21.702Z,20.10
2022-08-03T21:41:49.993Z,20.10
2022-08-03T21:44:29.171Z,20.10
2022-08-03T21:47:00.641Z,20.10
2022-08-03T21:50:05.267Z,20.20
2022-08-03T21:52:23.882Z,20.30
2022-08-03T21:54:55.449Z,20.50
2022-08-03T21:57:25.798Z,20.60
2022-08-03T21:59:56.538Z,20.60
2022-08-03T22:02:32.038Z,20.70
2022-08-03T22:05:00.597Z,20.80
2022-08-03T22:07:34.390Z,20.90
2022-08-03T22:10:06.205Z,21.00
2022-08-03T22:12:35.787Z,21.00
2022-08-03T22:15:06.658Z,21.00
2022-08-03T22:17:55.213Z,21.00
2022-08-03T22:20:25.662Z,21.00
2022-08-03T22:22:57.105Z,21.00
2022-08-03T22:25:30.729Z,21.00
2022-08-03T22:28:01.177Z,21.00
2022-08-03T22:30:29.858Z,21.00
2022-08-03T22:33:00.723Z,21.00
2022-08-03T22:35:29.769Z,21.00
2022-08-03T22:37:59.686Z,21.00
2022-08-03T22:40:28.970Z,21.00
2022-08-03T22:42:58.783Z,21.00
2022-08-03T22:46:07.067Z,21.00
2022-08-03T22:48:18.085Z,21.00
2022-08-03T22:50:47.673Z,20.90
2022-08-03T22:53:21.869Z,20.90
2022-08-03T22:55:50.589Z,20.90
2022-08-03T22:58:20.919Z,20.90
2022-08-03T23:00:55.066Z,20.90
2022-08-03T23:04:00.924Z,20.90
2022-08-03T23:06:17.866Z,20.90
2022-08-03T23:08:48.727Z,20.80
2022-08-03T23:11:19.930Z,20.80
2022-08-03T23:13:54.266Z,20.80
2022-08-03T23:16:29.703Z,20.70
2022-08-03T23:19:16.479Z,20.60
2022-08-03T23:21:53.567Z,20.60
2022-08-03T23:24:31.845Z,20.60
2022-08-03T23:27:00.887Z,20.50
2022-08-03T23:29:31.011Z,20.40
2022-08-03T23:31:59.631Z,20.40
2022-08-03T23:34:49.366Z,20.30
2022-08-03T23:37:19.374Z,20.30
2022-08-03T23:39:49.485Z,20.20
2022-08-03T23:42:20.419Z,20.20
2022-08-03T23:44:55.685Z,20.20
2022-08-03T23:47:24.860Z,20.10
2022-08-03T23:50:14.783Z,20.10
2022-08-03T23:52:53.765Z,20.10
2022-08-03T23:55:44.088Z,20.10
2022-08-03T23:58:21.148Z,20.10
